createdAt,value
2023-03-15T00:00:45.658Z,0.69
2023-03-15T00:01:47.327Z,0.68
2023-03-15T00:02:49.185Z,0.67
2023-03-15T00:03:50.793Z,0.68
2023-03-15T00:04:54.880Z,0.66
2023-03-15T00:05:56.391Z,0.66
2023-03-15T00:06:58.383Z,0.66
2023-03-15T00:07:59.890Z,0.66
2023-03-15T00:09:02.174Z,0.65
2023-03-15T00:10:04.388Z,0.64
2023-03-15T00:11:06.252Z,0.63
2023-03-15T00:12:11.317Z,0.62
2023-03-15T00:13:16.361Z,0.62
2023-03-15T00:14:18.618Z,0.61
2023-03-15T00:15:20.300Z,0.60
2023-03-15T00:16:21.695Z,0.58
2023-03-15T00:17:23.210Z,0.57
2023-03-15T00:18:24.940Z,0.57
2023-03-15T00:19:26.449Z,0.55
2023-03-15T00:20:27.948Z,0.56
2023-03-15T00:21:29.960Z,0.56
2023-03-15T00:22:31.339Z,0.55
2023-03-15T00:23:32.728Z,0.54
2023-03-15T00:24:34.247Z,0.54
2023-03-15T00:25:35.714Z,0.53
2023-03-15T00:26:37.614Z,0.52
2023-03-15T00:27:41.738Z,0.51
2023-03-15T00:28:43.660Z,0.50
2023-03-15T00:29:45.229Z,0.50
2023-03-15T00:30:46.703Z,0.49
2023-03-15T00:31:51.606Z,0.49
2023-03-15T00:32:56.750Z,0.47
2023-03-15T00:33:58.374Z,0.48
2023-03-15T00:34:59.895Z,0.45
2023-03-15T00:36:05.780Z,0.44
2023-03-15T00:37:07.456Z,0.43
2023-03-15T00:38:09.555Z,0.42
2023-03-15T00:39:11.181Z,0.41
2023-03-15T00:40:16.112Z,0.41
2023-03-15T00:41:18.696Z,0.40
2023-03-15T00:42:20.266Z,0.39
2023-03-15T00:43:23.428Z,0.40
2023-03-15T00:44:25.123Z,0.40
2023-03-15T00:45:26.621Z,0.39
2023-03-15T00:46:28.472Z,0.38
2023-03-15T00:47:30.194Z,0.39
2023-03-15T00:48:31.667Z,0.38
2023-03-15T00:49:34.151Z,0.37
2023-03-15T00:50:39.102Z,0.35
2023-03-15T00:51:40.562Z,0.34
2023-03-15T00:52:44.315Z,0.33
2023-03-15T00:53:48.506Z,0.32
2023-03-15T00:54:53.155Z,0.33
2023-03-15T00:55:54.748Z,0.32
2023-03-15T00:56:56.189Z,0.32
2023-03-15T00:57:58.377Z,0.31
2023-03-15T00:59:00.223Z,0.31
2023-03-15T01:00:10.171Z,0.31
2023-03-15T01:01:19.557Z,0.30
2023-03-15T01:02:22.282Z,0.28
2023-03-15T01:03:23.739Z,0.28
2023-03-15T01:04:25.187Z,0.29
2023-03-15T01:05:26.780Z,0.28
2023-03-15T01:06:29.205Z,0.27
2023-03-15T01:07:33.531Z,0.28
2023-03-15T01:08:35.032Z,0.27
2023-03-15T01:09:36.522Z,0.27
2023-03-15T01:10:39.160Z,0.26
2023-03-15T01:11:41.821Z,0.26
2023-03-15T01:12:45.078Z,0.26
2023-03-15T01:13:46.716Z,0.26
2023-03-15T01:14:48.394Z,0.26
2023-03-15T01:15:50.236Z,0.25
2023-03-15T01:16:55.318Z,0.24
2023-03-15T01:17:56.856Z,0.22
2023-03-15T01:18:59.370Z,0.22
2023-03-15T01:20:00.855Z,0.20
2023-03-15T01:21:02.293Z,0.20
2023-03-15T01:22:03.803Z,0.19
2023-03-15T01:23:05.178Z,0.17
2023-03-15T01:24:06.982Z,0.19
2023-03-15T01:25:09.428Z,0.19
2023-03-15T01:26:12.834Z,0.17
2023-03-15T01:27:14.510Z,0.18
2023-03-15T01:28:18.700Z,0.18
2023-03-15T01:29:22.642Z,0.19
2023-03-15T01:30:24.271Z,0.17
2023-03-15T01:31:26.945Z,0.18
2023-03-15T01:32:28.891Z,0.18
2023-03-15T01:33:32.880Z,0.17
2023-03-15T01:34:36.958Z,0.18
2023-03-15T01:35:38.457Z,0.17
2023-03-15T01:36:45.244Z,0.17
2023-03-15T01:37:49.467Z,0.17
2023-03-15T01:38:51.283Z,0.20
2023-03-15T01:39:58.043Z,0.20
2023-03-15T01:40:59.929Z,0.22
2023-03-15T01:42:04.507Z,0.22
2023-03-15T01:43:06.456Z,0.22
2023-03-15T01:44:18.599Z,0.23
2023-03-15T01:45:59.907Z,0.24
2023-03-15T01:47:02.702Z,0.26
2023-03-15T01:48:05.402Z,0.26
2023-03-15T01:49:16.201Z,0.28
2023-03-15T01:50:25.435Z,0.28
2023-03-15T01:51:31.257Z,0.29
2023-03-15T01:52:35.495Z,0.30
2023-03-15T01:53:38.082Z,0.30
2023-03-15T01:54:49.672Z,0.30
2023-03-15T01:55:53.143Z,0.32
2023-03-15T01:57:04.428Z,0.33
2023-03-15T01:58:06.958Z,0.33
2023-03-15T01:59:17.076Z,0.34
2023-03-15T02:00:20.323Z,0.36
2023-03-15T02:01:29.988Z,0.37
2023-03-15T02:02:36.318Z,0.38
2023-03-15T02:03:46.526Z,0.37
2023-03-15T02:04:52.396Z,0.39
2023-03-15T02:05:59.785Z,0.39
2023-03-15T02:07:11.499Z,0.39
2023-03-15T02:08:17.374Z,0.38
2023-03-15T02:09:22.542Z,0.39
2023-03-15T02:10:40.675Z,0.39
2023-03-15T02:11:43.087Z,0.40
2023-03-15T02:12:47.674Z,0.39
2023-03-15T02:13:49.590Z,0.39
2023-03-15T02:14:51.990Z,0.40
2023-03-15T02:15:56.317Z,0.39
2023-03-15T02:17:10.554Z,0.39
2023-03-15T02:18:12.911Z,0.40
2023-03-15T02:19:45.497Z,0.39
2023-03-15T02:20:53.735Z,0.37
2023-03-15T02:22:01.324Z,0.37
2023-03-15T02:23:07.867Z,0.37
2023-03-15T02:24:11.589Z,0.37
2023-03-15T02:25:14.913Z,0.38
2023-03-15T02:26:16.362Z,0.36
2023-03-15T02:27:25.719Z,0.37
2023-03-15T02:28:27.804Z,0.39
2023-03-15T02:29:29.771Z,0.37
2023-03-15T02:30:31.241Z,0.38
2023-03-15T02:31:38.094Z,0.38
2023-03-15T02:32:41.743Z,0.39
2023-03-15T02:33:47.476Z,0.39
2023-03-15T02:34:49.332Z,0.39
2023-03-15T02:35:51.400Z,0.39
2023-03-15T02:36:54.108Z,0.39
2023-03-15T02:37:55.763Z,0.41
2023-03-15T02:38:57.550Z,0.41
2023-03-15T02:39:58.984Z,0.41
2023-03-15T02:41:00.543Z,0.42
2023-03-15T02:42:02.000Z,0.41
2023-03-15T02:43:13.956Z,0.42
2023-03-15T02:44:21.507Z,0.42
2023-03-15T02:45:27.662Z,0.41
2023-03-15T02:46:29.341Z,0.41
2023-03-15T02:47:33.621Z,0.41
2023-03-15T02:48:35.874Z,0.41
2023-03-15T02:49:40.011Z,0.41
2023-03-15T02:50:42.868Z,0.41
2023-03-15T02:51:44.360Z,0.41
2023-03-15T02:52:46.063Z,0.42
2023-03-15T02:53:49.906Z,0.41
2023-03-15T02:54:51.303Z,0.39
2023-03-15T02:55:55.240Z,0.41
2023-03-15T02:56:58.998Z,0.40
2023-03-15T02:58:01.514Z,0.42
2023-03-15T02:59:05.134Z,0.42
2023-03-15T03:00:13.278Z,0.43
2023-03-15T03:01:15.995Z,0.44
2023-03-15T03:02:18.728Z,0.43
2023-03-15T03:03:21.440Z,0.42
2023-03-15T03:04:23.292Z,0.43
2023-03-15T03:05:24.930Z,0.41
2023-03-15T03:06:26.399Z,0.42
2023-03-15T03:07:28.386Z,0.40
2023-03-15T03:08:35.451Z,0.40
2023-03-15T03:09:37.264Z,0.38
2023-03-15T03:10:39.022Z,0.38
2023-03-15T03:11:40.612Z,0.37
2023-03-15T03:12:42.631Z,0.36
2023-03-15T03:13:44.233Z,0.34
2023-03-15T03:14:45.650Z,0.34
2023-03-15T03:15:58.482Z,0.33
2023-03-15T03:17:04.361Z,0.33
2023-03-15T03:18:05.838Z,0.32
2023-03-15T03:19:07.440Z,0.30
2023-03-15T03:20:13.705Z,0.31
2023-03-15T03:21:19.810Z,0.31
2023-03-15T03:22:24.499Z,0.30
2023-03-15T03:23:29.056Z,0.30
2023-03-15T03:24:32.405Z,0.30
2023-03-15T03:25:33.987Z,0.31
2023-03-15T03:26:37.715Z,0.30
2023-03-15T03:27:40.189Z,0.30
2023-03-15T03:28:44.811Z,0.31
2023-03-15T03:29:46.279Z,0.31
2023-03-15T03:30:50.788Z,0.31
2023-03-15T03:31:52.403Z,0.31
2023-03-15T03:32:55.897Z,0.31
2023-03-15T03:33:57.418Z,0.30
2023-03-15T03:34:59.822Z,0.29
2023-03-15T03:36:02.320Z,0.30
2023-03-15T03:37:04.694Z,0.29
2023-03-15T03:38:46.054Z,0.27
2023-03-15T03:39:48.513Z,0.26
2023-03-15T03:40:50.870Z,0.24
2023-03-15T03:41:52.403Z,0.23
2023-03-15T03:42:56.503Z,0.23
2023-03-15T03:44:00.809Z,0.22
2023-03-15T03:45:02.353Z,0.21
2023-03-15T03:46:14.649Z,0.21
2023-03-15T03:47:21.355Z,0.19
2023-03-15T03:48:22.781Z,0.19
2023-03-15T03:49:24.756Z,0.17
2023-03-15T03:50:26.401Z,0.18
2023-03-15T03:51:30.732Z,0.18
2023-03-15T03:52:32.236Z,0.18
2023-03-15T03:53:41.348Z,0.17
2023-03-15T03:54:43.225Z,0.19
2023-03-15T03:55:46.404Z,0.19
2023-03-15T03:56:52.315Z,0.17
2023-03-15T03:57:54.932Z,0.18
2023-03-15T03:59:16.094Z,0.17
2023-03-15T04:00:26.452Z,0.19
2023-03-15T04:01:27.922Z,0.19
2023-03-15T04:02:30.135Z,0.21
2023-03-15T04:03:38.432Z,0.20
2023-03-15T04:04:51.892Z,0.20
2023-03-15T04:05:56.532Z,0.22
2023-03-15T04:06:59.147Z,0.21
2023-03-15T04:08:05.924Z,0.22
2023-03-15T04:09:13.541Z,0.21
2023-03-15T04:10:17.604Z,0.21
2023-03-15T04:11:26.726Z,0.22
2023-03-15T04:12:33.429Z,0.21
2023-03-15T04:13:34.950Z,0.20
2023-03-15T04:14:36.988Z,0.19
2023-03-15T04:15:44.163Z,0.19
2023-03-15T04:16:45.615Z,0.19
2023-03-15T04:17:55.940Z,0.20
2023-03-15T04:18:59.068Z,0.19
2023-03-15T04:20:07.018Z,0.19
2023-03-15T04:21:11.631Z,0.18
2023-03-15T04:22:16.254Z,0.19
2023-03-15T04:23:40.815Z,0.19
2023-03-15T04:25:11.561Z,0.17
2023-03-15T04:26:36.159Z,0.15
2023-03-15T04:28:05.181Z,0.11
2023-03-15T04:29:29.563Z,0.09
2023-03-15T04:31:01.710Z,0.06
2023-03-15T04:32:21.599Z,0.05
2023-03-15T04:33:40.885Z,0.04
2023-03-15T04:34:55.984Z,0.02
2023-03-15T04:36:04.584Z,0.01
2023-03-15T04:37:17.908Z,-0.01
2023-03-15T04:38:37.338Z,-0.03
2023-03-15T04:39:58.164Z,-0.05
2023-03-15T04:41:32.218Z,-0.08
2023-03-15T04:42:45.850Z,-0.10
2023-03-15T04:44:08.637Z,-0.12
2023-03-15T04:45:28.734Z,-0.14
2023-03-15T04:46:45.615Z,-0.16
2023-03-15T04:47:55.820Z,-0.18
2023-03-15T04:49:15.436Z,-0.20
2023-03-15T04:50:31.439Z,-0.22
2023-03-15T04:51:53.225Z,-0.24
2023-03-15T04:53:23.657Z,-0.27
2023-03-15T04:54:39.296Z,-0.28
2023-03-15T04:56:04.826Z,-0.30
2023-03-15T04:57:24.913Z,-0.33
2023-03-15T04:58:46.717Z,-0.37
2023-03-15T05:00:09.844Z,-0.41
2023-03-15T05:01:19.623Z,-0.42
2023-03-15T05:02:41.472Z,-0.44
2023-03-15T05:03:53.728Z,-0.46
2023-03-15T05:05:24.748Z,-0.48
2023-03-15T05:06:46.431Z,-0.50
2023-03-15T05:08:17.391Z,-0.53
2023-03-15T05:09:39.940Z,-0.54
2023-03-15T05:11:02.393Z,-0.56
2023-03-15T05:12:24.542Z,-0.58
2023-03-15T05:13:31.047Z,-0.60
2023-03-15T05:14:56.166Z,-0.61
2023-03-15T05:16:09.800Z,-0.62
2023-03-15T05:17:21.208Z,-0.63
2023-03-15T05:18:41.520Z,-0.64
2023-03-15T05:19:42.938Z,-0.66
2023-03-15T05:21:03.982Z,-0.68
2023-03-15T05:22:25.572Z,-0.70
2023-03-15T05:23:53.243Z,-0.72
2023-03-15T05:25:15.406Z,-0.75
2023-03-15T05:26:46.445Z,-0.77
2023-03-15T05:28:05.449Z,-0.79
2023-03-15T05:29:14.527Z,-0.81
2023-03-15T05:30:39.346Z,-0.83
2023-03-15T05:31:49.190Z,-0.84
2023-03-15T05:33:11.753Z,-0.86
2023-03-15T05:34:24.174Z,-0.88
2023-03-15T05:35:34.438Z,-0.90
2023-03-15T05:36:46.590Z,-0.92
2023-03-15T05:38:06.864Z,-0.94
2023-03-15T05:39:09.087Z,-0.94
2023-03-15T05:40:32.911Z,-0.95
2023-03-15T05:41:44.389Z,-0.96
2023-03-15T05:43:17.238Z,-0.95
2023-03-15T05:44:43.487Z,-0.95
2023-03-15T05:46:03.888Z,-0.93
2023-03-15T05:47:32.056Z,-0.92
2023-03-15T05:48:50.209Z,-0.90
2023-03-15T05:50:14.677Z,-0.88
2023-03-15T05:51:43.097Z,-0.87
2023-03-15T05:53:10.876Z,-0.86
2023-03-15T05:54:35.458Z,-0.82
2023-03-15T05:56:09.187Z,-0.79
2023-03-15T05:57:16.459Z,-0.77
2023-03-15T05:58:40.467Z,-0.73
2023-03-15T05:59:47.972Z,-0.71
2023-03-15T06:01:17.892Z,-0.69
2023-03-15T06:02:34.231Z,-0.65
2023-03-15T06:03:51.234Z,-0.63
2023-03-15T06:04:56.627Z,-0.61
2023-03-15T06:06:01.082Z,-0.59
2023-03-15T06:07:09.996Z,-0.57
2023-03-15T06:08:11.456Z,-0.56
2023-03-15T06:09:18.333Z,-0.52
2023-03-15T06:10:28.450Z,-0.51
2023-03-15T06:11:31.926Z,-0.49
2023-03-15T06:12:38.091Z,-0.47
2023-03-15T06:13:39.636Z,-0.45
2023-03-15T06:14:49.821Z,-0.43
2023-03-15T06:15:51.701Z,-0.40
2023-03-15T06:16:54.810Z,-0.39
2023-03-15T06:17:57.899Z,-0.38
2023-03-15T06:18:59.783Z,-0.38
2023-03-15T06:20:01.648Z,-0.36
2023-03-15T06:21:03.219Z,-0.34
2023-03-15T06:22:04.996Z,-0.34
2023-03-15T06:23:15.937Z,-0.31
2023-03-15T06:24:22.360Z,-0.30
2023-03-15T06:25:25.986Z,-0.28
2023-03-15T06:26:27.738Z,-0.28
2023-03-15T06:27:34.298Z,-0.25
2023-03-15T06:28:36.199Z,-0.23
2023-03-15T06:29:38.943Z,-0.23
2023-03-15T06:30:40.995Z,-0.22
2023-03-15T06:31:44.186Z,-0.20
2023-03-15T06:32:46.739Z,-0.19
2023-03-15T06:33:52.245Z,-0.16
2023-03-15T06:34:54.955Z,-0.16
2023-03-15T06:35:56.538Z,-0.12
2023-03-15T06:36:57.961Z,-0.09
2023-03-15T06:37:59.451Z,-0.07
2023-03-15T06:39:02.947Z,-0.06
2023-03-15T06:40:09.176Z,-0.02
2023-03-15T06:41:15.132Z,-0.02
2023-03-15T06:42:17.576Z,0.02
2023-03-15T06:43:19.802Z,0.05
2023-03-15T06:44:21.871Z,0.08
2023-03-15T06:45:30.382Z,0.11
2023-03-15T06:46:34.594Z,0.14
2023-03-15T06:47:36.180Z,0.16
2023-03-15T06:48:39.084Z,0.21
2023-03-15T06:49:42.188Z,0.25
2023-03-15T06:50:47.609Z,0.30
2023-03-15T06:51:52.472Z,0.34
2023-03-15T06:52:54.359Z,0.39
2023-03-15T06:53:56.099Z,0.44
2023-03-15T06:54:58.997Z,0.48
2023-03-15T06:56:00.662Z,0.54
2023-03-15T06:57:02.198Z,0.59
2023-03-15T06:58:03.764Z,0.65
2023-03-15T06:59:08.667Z,0.71
2023-03-15T07:00:11.468Z,0.78
2023-03-15T07:01:13.932Z,0.84
2023-03-15T07:02:16.945Z,0.89
2023-03-15T07:03:22.298Z,0.95
2023-03-15T07:04:25.946Z,1.01
2023-03-15T07:05:27.944Z,1.06
2023-03-15T07:06:29.593Z,1.10
2023-03-15T07:07:31.008Z,1.15
2023-03-15T07:08:34.732Z,1.18
2023-03-15T07:09:36.324Z,1.19
2023-03-15T07:10:37.931Z,1.19
2023-03-15T07:11:40.963Z,1.20
2023-03-15T07:12:45.391Z,1.17
2023-03-15T07:13:47.289Z,1.15
2023-03-15T07:14:49.707Z,1.13
2023-03-15T07:15:52.470Z,1.10
2023-03-15T07:16:54.104Z,1.06
2023-03-15T07:17:57.828Z,1.02
2023-03-15T07:19:00.048Z,0.98
2023-03-15T07:20:01.492Z,0.95
2023-03-15T07:21:03.812Z,0.90
2023-03-15T07:22:08.436Z,0.86
2023-03-15T07:23:10.038Z,0.81
2023-03-15T07:24:11.490Z,0.77
2023-03-15T07:25:15.350Z,0.74
2023-03-15T07:26:16.801Z,0.70
2023-03-15T07:27:19.526Z,0.67
2023-03-15T07:28:23.226Z,0.65
2023-03-15T07:29:25.067Z,0.62
2023-03-15T07:30:28.046Z,0.60
2023-03-15T07:31:29.503Z,0.57
2023-03-15T07:32:31.980Z,0.55
2023-03-15T07:33:35.953Z,0.53
2023-03-15T07:34:37.477Z,0.51
2023-03-15T07:35:39.500Z,0.50
2023-03-15T07:36:41.140Z,0.47
2023-03-15T07:37:44.692Z,0.46
2023-03-15T07:38:46.341Z,0.45
2023-03-15T07:39:47.843Z,0.44
2023-03-15T07:40:51.669Z,0.43
2023-03-15T07:41:53.421Z,0.43
2023-03-15T07:43:04.481Z,0.43
2023-03-15T07:44:06.020Z,0.43
2023-03-15T07:45:10.431Z,0.45
2023-03-15T07:46:11.980Z,0.46
2023-03-15T07:47:14.775Z,0.47
2023-03-15T07:48:16.384Z,0.50
2023-03-15T07:49:18.294Z,0.54
2023-03-15T07:50:19.762Z,0.57
2023-03-15T07:51:21.118Z,0.61
2023-03-15T07:52:23.074Z,0.65
2023-03-15T07:53:24.514Z,0.71
2023-03-15T07:54:27.897Z,0.74
2023-03-15T07:55:31.220Z,0.77
2023-03-15T07:56:35.074Z,0.81
2023-03-15T07:57:36.526Z,0.84
2023-03-15T07:58:38.347Z,0.84
2023-03-15T07:59:39.989Z,0.84
2023-03-15T08:00:41.556Z,0.84
2023-03-15T08:01:43.010Z,0.84
2023-03-15T08:02:44.502Z,0.84
2023-03-15T08:03:45.915Z,0.84
2023-03-15T08:04:48.805Z,0.82
2023-03-15T08:05:50.747Z,0.81
2023-03-15T08:06:52.206Z,0.80
2023-03-15T08:07:53.913Z,0.80
2023-03-15T08:08:55.302Z,0.79
2023-03-15T08:09:58.498Z,0.78
2023-03-15T08:11:00.046Z,0.78
2023-03-15T08:12:01.834Z,0.77
2023-03-15T08:13:03.595Z,0.77
2023-03-15T08:14:05.747Z,0.76
2023-03-15T08:15:07.685Z,0.76
2023-03-15T08:16:09.442Z,0.77
2023-03-15T08:17:13.145Z,0.79
2023-03-15T08:18:14.692Z,0.79
2023-03-15T08:19:16.466Z,0.82
2023-03-15T08:20:18.381Z,0.84
2023-03-15T08:21:19.940Z,0.85
2023-03-15T08:22:21.520Z,0.88
2023-03-15T08:23:25.289Z,0.91
2023-03-15T08:24:27.201Z,0.92
2023-03-15T08:25:32.004Z,0.94
2023-03-15T08:26:33.773Z,0.97
2023-03-15T08:27:35.264Z,1.01
2023-03-15T08:28:36.693Z,1.01
2023-03-15T08:29:38.495Z,1.03
2023-03-15T08:30:40.783Z,1.05
2023-03-15T08:31:42.375Z,1.07
2023-03-15T08:32:45.079Z,1.08
2023-03-15T08:33:46.590Z,1.08
2023-03-15T08:34:53.145Z,1.09
2023-03-15T08:35:57.020Z,1.09
2023-03-15T08:36:58.973Z,1.10
2023-03-15T08:38:02.557Z,1.10
2023-03-15T08:39:05.518Z,1.11
2023-03-15T08:40:11.273Z,1.11
2023-03-15T08:41:13.230Z,1.13
2023-03-15T08:42:14.685Z,1.13
2023-03-15T08:43:16.146Z,1.14
2023-03-15T08:44:20.826Z,1.17
2023-03-15T08:45:24.374Z,1.18
2023-03-15T08:46:26.221Z,1.21
2023-03-15T08:47:30.722Z,1.22
2023-03-15T08:48:34.313Z,1.26
2023-03-15T08:49:35.859Z,1.29
2023-03-15T08:50:38.797Z,1.31
2023-03-15T08:51:42.878Z,1.34
2023-03-15T08:52:44.457Z,1.38
2023-03-15T08:53:46.042Z,1.43
2023-03-15T08:54:50.000Z,1.49
2023-03-15T08:55:51.550Z,1.58
2023-03-15T08:56:52.947Z,1.65
2023-03-15T08:57:54.553Z,1.74
2023-03-15T08:58:55.992Z,1.82
2023-03-15T08:59:57.608Z,1.91
2023-03-15T09:01:01.852Z,1.97
2023-03-15T09:02:03.783Z,2.00
2023-03-15T09:03:05.325Z,2.01
2023-03-15T09:04:06.960Z,1.99
2023-03-15T09:05:14.425Z,1.98
2023-03-15T09:06:16.012Z,1.93
2023-03-15T09:07:20.659Z,1.90
2023-03-15T09:08:22.099Z,1.84
2023-03-15T09:09:25.132Z,1.80
2023-03-15T09:10:26.997Z,1.75
2023-03-15T09:11:29.725Z,1.73
2023-03-15T09:12:31.112Z,1.69
2023-03-15T09:13:32.867Z,1.65
2023-03-15T09:14:36.787Z,1.61
2023-03-15T09:15:38.467Z,1.57
2023-03-15T09:16:39.956Z,1.54
2023-03-15T09:17:41.935Z,1.50
2023-03-15T09:18:48.201Z,1.48
2023-03-15T09:19:49.737Z,1.45
2023-03-15T09:20:51.170Z,1.43
2023-03-15T09:21:52.882Z,1.41
2023-03-15T09:22:58.451Z,1.39
2023-03-15T09:24:04.041Z,1.38
2023-03-15T09:25:05.710Z,1.36
2023-03-15T09:26:07.489Z,1.35
2023-03-15T09:27:11.723Z,1.35
2023-03-15T09:28:13.340Z,1.34
2023-03-15T09:29:15.889Z,1.35
2023-03-15T09:30:17.977Z,1.37
2023-03-15T09:31:19.793Z,1.40
2023-03-15T09:32:21.557Z,1.44
2023-03-15T09:33:22.951Z,1.48
2023-03-15T09:34:25.351Z,1.52
2023-03-15T09:35:31.663Z,1.56
2023-03-15T09:36:35.442Z,1.62
2023-03-15T09:37:36.883Z,1.64
2023-03-15T09:38:38.544Z,1.67
2023-03-15T09:39:40.067Z,1.69
2023-03-15T09:40:44.950Z,1.70
2023-03-15T09:41:49.109Z,1.73
2023-03-15T09:42:54.275Z,1.72
2023-03-15T09:44:09.234Z,1.73
2023-03-15T09:45:29.565Z,1.72
2023-03-15T09:46:32.675Z,1.73
2023-03-15T09:47:44.552Z,1.74
2023-03-15T09:48:46.057Z,1.72
2023-03-15T09:49:53.486Z,1.71
2023-03-15T09:51:00.890Z,1.74
2023-03-15T09:52:14.178Z,1.71
2023-03-15T09:53:20.190Z,1.71
2023-03-15T09:54:23.690Z,1.74
2023-03-15T09:55:31.658Z,1.76
2023-03-15T09:56:36.561Z,1.78
2023-03-15T09:57:43.629Z,1.79
2023-03-15T09:58:51.452Z,1.83
2023-03-15T09:59:54.507Z,1.86
2023-03-15T10:01:17.095Z,1.88
2023-03-15T10:02:23.634Z,1.92
2023-03-15T10:03:32.098Z,1.95
2023-03-15T10:04:39.988Z,1.98
2023-03-15T10:05:48.983Z,2.01
2023-03-15T10:06:54.213Z,2.03
2023-03-15T10:07:55.917Z,2.04
2023-03-15T10:09:01.844Z,2.05
2023-03-15T10:10:05.105Z,2.07
2023-03-15T10:11:15.070Z,2.08
2023-03-15T10:12:23.596Z,2.11
2023-03-15T10:13:49.906Z,2.18
2023-03-15T10:14:54.269Z,2.25
2023-03-15T10:16:08.104Z,2.29
2023-03-15T10:17:14.389Z,2.33
2023-03-15T10:18:42.828Z,2.38
2023-03-15T10:19:52.126Z,2.46
2023-03-15T10:20:59.753Z,2.51
2023-03-15T10:22:13.490Z,2.56
2023-03-15T10:23:21.003Z,2.64
2023-03-15T10:24:35.797Z,2.71
2023-03-15T10:25:39.731Z,2.78
2023-03-15T10:27:50.881Z,2.93
2023-03-15T10:28:53.393Z,2.98
2023-03-15T10:29:55.916Z,3.02
2023-03-15T10:31:01.345Z,3.04
2023-03-15T10:32:04.578Z,3.07
2023-03-15T10:33:24.686Z,3.08
2023-03-15T10:34:26.868Z,3.08
2023-03-15T10:35:29.358Z,3.07
2023-03-15T10:36:31.059Z,3.06
2023-03-15T10:37:36.590Z,3.02
2023-03-15T10:38:38.566Z,2.99
2023-03-15T10:39:39.917Z,2.94
2023-03-15T10:41:02.778Z,2.89
2023-03-15T10:42:04.459Z,2.86
2023-03-15T10:43:14.525Z,2.84
2023-03-15T10:44:18.441Z,2.83
2023-03-15T10:45:23.973Z,2.84
2023-03-15T10:46:25.449Z,2.83
2023-03-15T10:47:30.705Z,2.84
2023-03-15T10:48:33.844Z,2.84
2023-03-15T10:49:36.747Z,2.83
2023-03-15T10:50:38.945Z,2.85
2023-03-15T10:51:45.088Z,2.87
2023-03-15T10:52:46.634Z,2.88
2023-03-15T10:53:53.023Z,2.88
2023-03-15T10:54:58.810Z,2.88
2023-03-15T10:56:07.594Z,2.89
2023-03-15T10:57:14.435Z,2.90
2023-03-15T10:58:18.775Z,2.91
2023-03-15T10:59:22.846Z,2.92
2023-03-15T11:00:32.280Z,2.94
2023-03-15T11:01:38.223Z,2.96
2023-03-15T11:02:48.713Z,2.98
2023-03-15T11:04:09.979Z,2.99
2023-03-15T11:05:12.409Z,3.00
2023-03-15T11:06:21.685Z,3.01
2023-03-15T11:07:23.304Z,3.03
2023-03-15T11:08:35.520Z,3.03
2023-03-15T11:09:44.736Z,3.05
2023-03-15T11:10:49.879Z,3.07
2023-03-15T11:11:52.411Z,3.10
2023-03-15T11:13:14.207Z,3.11
2023-03-15T11:14:15.624Z,3.15
2023-03-15T11:15:18.518Z,3.17
2023-03-15T11:16:23.998Z,3.19
2023-03-15T11:17:28.300Z,3.20
2023-03-15T11:18:37.945Z,3.22
2023-03-15T11:19:45.103Z,3.24
2023-03-15T11:20:46.566Z,3.27
2023-03-15T11:21:52.172Z,3.29
2023-03-15T11:22:53.749Z,3.32
2023-03-15T11:23:56.033Z,3.34
2023-03-15T11:24:59.084Z,3.36
2023-03-15T11:26:01.523Z,3.39
2023-03-15T11:27:09.675Z,3.44
2023-03-15T11:28:14.240Z,3.47
2023-03-15T11:29:21.499Z,3.52
2023-03-15T11:30:27.600Z,3.56
2023-03-15T11:31:30.082Z,3.59
2023-03-15T11:32:33.937Z,3.66
2023-03-15T11:33:41.496Z,3.70
2023-03-15T11:35:09.250Z,3.75
2023-03-15T11:36:14.178Z,3.84
2023-03-15T11:37:35.833Z,3.88
2023-03-15T11:38:39.202Z,3.94
2023-03-15T11:39:45.784Z,4.01
2023-03-15T11:40:52.264Z,4.04
2023-03-15T11:41:56.827Z,4.13
2023-03-15T11:43:01.276Z,4.21
2023-03-15T11:44:06.473Z,4.28
2023-03-15T11:45:30.872Z,4.34
2023-03-15T11:46:57.711Z,4.42
2023-03-15T11:48:22.527Z,4.44
2023-03-15T11:49:33.144Z,4.44
2023-03-15T11:50:34.570Z,4.42
2023-03-15T11:51:36.492Z,4.40
2023-03-15T11:52:40.717Z,4.35
2023-03-15T11:53:46.442Z,4.31
2023-03-15T11:54:47.934Z,4.23
2023-03-15T11:55:50.571Z,4.15
2023-03-15T11:56:56.566Z,4.08
2023-03-15T11:58:21.285Z,3.99
2023-03-15T11:59:28.664Z,3.89
2023-03-15T12:00:35.700Z,3.83
2023-03-15T12:01:38.183Z,3.78
2023-03-15T12:02:48.664Z,3.75
2023-03-15T12:03:52.354Z,3.70
2023-03-15T12:04:54.637Z,3.67
2023-03-15T12:06:05.337Z,3.66
2023-03-15T12:07:31.806Z,3.59
2023-03-15T12:08:36.520Z,3.57
2023-03-15T12:09:39.256Z,3.56
2023-03-15T12:10:45.101Z,3.57
2023-03-15T12:11:46.533Z,3.55
2023-03-15T12:12:56.858Z,3.56
2023-03-15T12:13:58.320Z,3.58
2023-03-15T12:15:35.127Z,3.61
2023-03-15T12:16:42.351Z,3.64
2023-03-15T12:17:50.075Z,3.67
2023-03-15T12:18:52.653Z,3.69
2023-03-15T12:20:02.097Z,3.71
2023-03-15T12:21:14.273Z,3.74
2023-03-15T12:22:16.670Z,3.76
2023-03-15T12:23:18.181Z,3.79
2023-03-15T12:24:24.823Z,3.81
2023-03-15T12:25:33.922Z,3.84
2023-03-15T12:26:36.826Z,3.87
2023-03-15T12:27:49.301Z,3.88
2023-03-15T12:29:03.958Z,3.91
2023-03-15T12:30:20.024Z,3.94
2023-03-15T12:31:24.272Z,3.95
2023-03-15T12:32:27.656Z,3.99
2023-03-15T12:33:34.185Z,4.03
2023-03-15T12:34:48.503Z,4.07
2023-03-15T12:35:52.705Z,4.07
2023-03-15T12:36:57.059Z,4.10
2023-03-15T12:38:03.463Z,4.16
2023-03-15T12:39:14.296Z,4.20
2023-03-15T12:40:15.769Z,4.23
2023-03-15T12:41:36.092Z,4.24
2023-03-15T12:42:38.860Z,4.27
2023-03-15T12:43:43.358Z,4.28
2023-03-15T12:44:44.946Z,4.34
2023-03-15T12:45:46.604Z,4.36
2023-03-15T12:46:48.977Z,4.39
2023-03-15T12:47:50.692Z,4.46
2023-03-15T12:49:05.174Z,4.50
2023-03-15T12:50:25.320Z,4.54
2023-03-15T12:51:53.715Z,4.58
2023-03-15T12:52:58.632Z,4.61
2023-03-15T12:54:05.871Z,4.64
2023-03-15T12:55:10.334Z,4.62
2023-03-15T12:56:33.703Z,4.64
2023-03-15T12:57:39.784Z,4.68
2023-03-15T12:58:44.865Z,4.69
2023-03-15T13:00:00.804Z,4.73
2023-03-15T13:01:05.372Z,4.74
2023-03-15T13:02:41.695Z,4.76
2023-03-15T13:03:44.557Z,4.75
2023-03-15T13:04:49.895Z,4.75
2023-03-15T13:06:03.313Z,4.73
2023-03-15T13:07:17.733Z,4.68
2023-03-15T13:08:19.284Z,4.65
2023-03-15T13:09:46.457Z,4.60
2023-03-15T13:10:50.587Z,4.51
2023-03-15T13:12:08.391Z,4.48
2023-03-15T13:13:20.057Z,4.40
2023-03-15T13:14:40.372Z,4.37
2023-03-15T13:15:44.762Z,4.33
2023-03-15T13:17:07.098Z,4.28
2023-03-15T13:18:21.509Z,4.25
2023-03-15T13:19:31.265Z,4.21
2023-03-15T13:20:46.382Z,4.17
2023-03-15T13:21:57.019Z,4.13
2023-03-15T13:23:17.607Z,4.09
2023-03-15T13:24:25.999Z,4.06
2023-03-15T13:25:32.020Z,4.03
2023-03-15T13:26:51.256Z,4.01
2023-03-15T13:27:57.747Z,3.99
2023-03-15T13:29:01.010Z,3.98
2023-03-15T13:30:10.530Z,3.94
2023-03-15T13:31:14.467Z,3.93
2023-03-15T13:32:18.226Z,3.90
2023-03-15T13:33:30.218Z,3.89
2023-03-15T13:34:34.251Z,3.86
2023-03-15T13:36:01.715Z,3.85
2023-03-15T13:37:04.003Z,3.84
2023-03-15T13:38:25.295Z,3.83
2023-03-15T13:39:28.096Z,3.83
2023-03-15T13:40:32.134Z,3.83
2023-03-15T13:41:33.970Z,3.88
2023-03-15T13:42:39.264Z,3.89
2023-03-15T13:43:42.437Z,3.90
2023-03-15T13:44:46.620Z,3.91
2023-03-15T13:45:48.894Z,3.95
2023-03-15T13:46:51.217Z,3.97
2023-03-15T13:47:52.845Z,3.99
2023-03-15T13:48:59.043Z,4.02
2023-03-15T13:50:04.265Z,4.05
2023-03-15T13:51:20.722Z,4.05
2023-03-15T13:52:22.729Z,4.06
2023-03-15T13:53:35.644Z,4.07
2023-03-15T13:54:45.836Z,4.07
2023-03-15T13:55:50.994Z,4.07
2023-03-15T13:56:58.318Z,4.05
2023-03-15T13:58:04.256Z,4.02
2023-03-15T13:59:11.601Z,4.01
2023-03-15T14:00:16.978Z,3.96
2023-03-15T14:01:25.496Z,3.92
2023-03-15T14:02:41.287Z,3.90
2023-03-15T14:03:44.325Z,3.84
2023-03-15T14:04:49.803Z,3.83
2023-03-15T14:05:52.747Z,3.81
2023-03-15T14:07:22.865Z,3.79
2023-03-15T14:08:32.193Z,3.78
2023-03-15T14:09:33.913Z,3.76
2023-03-15T14:10:36.899Z,3.75
2023-03-15T14:11:41.485Z,3.71
2023-03-15T14:12:46.460Z,3.72
2023-03-15T14:14:02.081Z,3.69
2023-03-15T14:15:04.414Z,3.69
2023-03-15T14:16:17.650Z,3.65
2023-03-15T14:17:24.573Z,3.58
2023-03-15T14:18:31.149Z,3.50
2023-03-15T14:19:34.607Z,3.41
2023-03-15T14:20:47.609Z,3.35
2023-03-15T14:21:59.672Z,3.25
2023-03-15T14:23:01.943Z,3.13
2023-03-15T14:24:06.055Z,3.07
2023-03-15T14:25:21.545Z,3.05
2023-03-15T14:26:28.705Z,3.01
2023-03-15T14:27:33.533Z,3.01
2023-03-15T14:28:35.199Z,3.01
2023-03-15T14:29:39.888Z,3.00
2023-03-15T14:30:52.110Z,3.02
2023-03-15T14:31:54.119Z,3.01
2023-03-15T14:32:57.436Z,3.03
2023-03-15T14:34:16.211Z,3.03
2023-03-15T14:35:25.062Z,3.05
2023-03-15T14:36:35.417Z,3.06
2023-03-15T14:37:41.130Z,3.07
2023-03-15T14:38:50.939Z,3.07
2023-03-15T14:39:54.773Z,3.10
2023-03-15T14:41:09.970Z,3.12
2023-03-15T14:42:14.155Z,3.14
2023-03-15T14:43:15.994Z,3.18
2023-03-15T14:44:20.357Z,3.20
2023-03-15T14:45:24.674Z,3.22
2023-03-15T14:46:26.293Z,3.23